createdAt,value
2023-03-06T00:31:08.280Z,10.70
2023-03-06T00:33:34.958Z,10.10
2023-03-06T00:36:05.277Z,10.00
2023-03-06T00:38:35.465Z,10.00
2023-03-06T00:41:13.040Z,10.10
2023-03-06T00:43:39.908Z,10.00
2023-03-06T00:46:07.095Z,10.00
2023-03-06T00:58:24.050Z,9.90
2023-03-06T01:00:50.829Z,9.70
2023-03-06T01:03:17.817Z,9.80
2023-03-06T01:05:44.566Z,9.80
2023-03-06T01:08:11.304Z,9.70
2023-03-06T01:10:39.992Z,9.70
2023-03-06T01:13:07.116Z,9.70
2023-03-06T01:15:33.861Z,9.70
2023-03-06T01:18:00.871Z,9.60
2023-03-06T01:20:27.947Z,9.60
2023-03-06T01:22:56.524Z,9.60
2023-03-06T01:25:26.738Z,9.70
2023-03-06T01:27:53.484Z,9.70
2023-03-06T01:30:20.808Z,9.70
2023-03-06T01:32:48.306Z,9.70
2023-03-06T01:35:15.060Z,9.70
2023-03-06T01:37:41.759Z,9.70
2023-03-06T01:40:10.451Z,9.70
2023-03-06T01:42:37.196Z,9.70
2023-03-06T01:45:09.431Z,9.70
2023-03-06T01:47:36.381Z,9.70
2023-03-06T01:50:05.372Z,9.70
2023-03-06T01:52:35.718Z,9.70
2023-03-06T01:55:12.539Z,9.70
2023-03-06T01:57:44.514Z,9.70
2023-03-06T02:00:15.500Z,9.60
2023-03-06T02:02:46.837Z,9.60
2023-03-06T02:05:13.698Z,9.50
2023-03-06T02:07:42.382Z,9.50
2023-03-06T02:10:10.766Z,9.50
2023-03-06T02:12:40.401Z,9.50
2023-03-06T02:15:07.423Z,9.50
2023-03-06T02:17:35.601Z,9.50
2023-03-06T02:20:29.019Z,9.40
2023-03-06T02:23:11.076Z,9.30
2023-03-06T02:25:44.636Z,9.30
2023-03-06T02:28:17.679Z,9.30
2023-03-06T02:30:47.539Z,9.20
2023-03-06T02:33:19.335Z,9.20
2023-03-06T02:35:53.591Z,9.20
2023-03-06T02:38:24.830Z,9.10
2023-03-06T02:40:52.129Z,9.10
2023-03-06T02:43:24.656Z,9.10
2023-03-06T02:45:51.947Z,9.00
2023-03-06T02:48:19.487Z,9.00
2023-03-06T02:50:48.700Z,9.00
2023-03-06T03:03:07.425Z,9.00
2023-03-06T03:05:34.151Z,9.00
2023-03-06T03:08:01.004Z,8.90
2023-03-06T03:10:27.867Z,8.90
2023-03-06T03:12:54.768Z,8.90
2023-03-06T03:15:21.654Z,8.90
2023-03-06T03:17:48.422Z,8.90
2023-03-06T03:20:18.233Z,8.90
2023-03-06T03:22:54.017Z,8.80
2023-03-06T03:25:23.788Z,8.80
2023-03-06T03:27:50.933Z,8.80
2023-03-06T03:30:18.080Z,8.80
2023-03-06T03:32:44.903Z,8.80
2023-03-06T03:35:13.230Z,8.80
2023-03-06T03:37:40.023Z,8.80
2023-03-06T03:40:10.170Z,8.80
2023-03-06T03:42:36.835Z,8.80
2023-03-06T03:45:03.804Z,8.90
2023-03-06T03:47:30.588Z,8.80
2023-03-06T03:49:57.344Z,8.80
2023-03-06T03:52:24.270Z,8.80
2023-03-06T03:54:50.909Z,8.80
2023-03-06T03:57:18.582Z,8.80
2023-03-06T03:59:45.353Z,8.80
2023-03-06T04:02:12.053Z,8.80
2023-03-06T04:04:38.907Z,8.80
2023-03-06T04:07:05.615Z,8.80
2023-03-06T04:09:32.502Z,8.80
2023-03-06T04:11:59.287Z,8.70
2023-03-06T04:14:26.019Z,8.70
2023-03-06T04:16:52.836Z,8.70
2023-03-06T04:19:19.570Z,8.70
2023-03-06T04:21:46.444Z,8.70
2023-03-06T04:24:13.273Z,8.80
2023-03-06T04:26:40.148Z,8.80
2023-03-06T04:29:07.226Z,8.70
2023-03-06T04:31:35.018Z,8.70
2023-03-06T04:34:01.793Z,8.70
2023-03-06T04:36:31.187Z,8.70
2023-03-06T04:38:58.717Z,8.70
2023-03-06T04:41:25.517Z,8.70
2023-03-06T04:43:52.860Z,8.70
2023-03-06T04:46:19.762Z,8.70
2023-03-06T04:48:46.398Z,8.70
2023-03-06T04:51:14.503Z,8.70
2023-03-06T04:53:41.209Z,8.70
2023-03-06T04:56:08.186Z,8.80
2023-03-06T04:58:34.961Z,8.80
2023-03-06T05:01:01.863Z,8.80
2023-03-06T05:03:28.615Z,8.80
2023-03-06T05:05:55.353Z,8.80
2023-03-06T05:08:23.694Z,8.90
2023-03-06T05:10:59.066Z,8.90
2023-03-06T05:13:26.634Z,8.90
2023-03-06T05:15:53.990Z,9.00
2023-03-06T05:18:20.754Z,9.00
2023-03-06T05:20:47.614Z,9.00
2023-03-06T05:23:14.333Z,9.00
2023-03-06T05:25:41.761Z,9.00
2023-03-06T05:28:08.565Z,9.00
2023-03-06T05:30:35.939Z,9.00
2023-03-06T05:33:02.584Z,8.90
2023-03-06T05:35:29.337Z,8.90
2023-03-06T05:37:56.390Z,8.90
2023-03-06T05:40:23.057Z,8.90
2023-03-06T05:42:49.794Z,8.90
2023-03-06T05:45:16.819Z,8.90
2023-03-06T05:47:43.665Z,8.90
2023-03-06T05:50:11.250Z,8.90
2023-03-06T05:52:39.735Z,8.90
2023-03-06T05:55:07.441Z,8.90
2023-03-06T05:57:34.195Z,8.90
2023-03-06T06:00:00.873Z,8.90
2023-03-06T06:02:27.588Z,8.90
2023-03-06T06:04:54.309Z,8.90
2023-03-06T06:07:21.051Z,8.90
2023-03-06T06:09:47.827Z,9.00
2023-03-06T06:12:14.810Z,9.00
2023-03-06T06:14:41.619Z,9.00
2023-03-06T06:17:08.356Z,9.00
2023-03-06T06:19:35.127Z,9.00
2023-03-06T06:22:05.138Z,9.00
2023-03-06T06:24:32.439Z,9.10
2023-03-06T06:27:02.008Z,9.10
2023-03-06T06:29:31.043Z,9.10
2023-03-06T06:31:58.265Z,9.10
2023-03-06T06:34:25.629Z,9.30
2023-03-06T06:36:53.620Z,9.20
2023-03-06T06:39:23.050Z,9.40
2023-03-06T06:42:05.626Z,9.30
2023-03-06T06:44:38.562Z,9.50
2023-03-06T06:47:24.215Z,9.60
2023-03-06T06:54:51.775Z,9.90
2023-03-06T06:59:45.959Z,10.50
2023-03-06T07:07:28.085Z,10.90
2023-03-06T07:19:48.543Z,11.40
2023-03-06T07:22:15.685Z,10.80
2023-03-06T07:24:42.392Z,10.60
2023-03-06T07:27:09.126Z,10.50
2023-03-06T07:29:36.273Z,10.40
2023-03-06T07:32:03.067Z,10.30
2023-03-06T07:34:30.895Z,10.20
2023-03-06T07:36:57.606Z,10.10
2023-03-06T07:39:24.449Z,10.00
2023-03-06T07:41:52.402Z,10.00
2023-03-06T08:13:53.639Z,9.80
2023-03-06T08:16:22.376Z,9.60
2023-03-06T08:18:49.260Z,9.60
2023-03-06T08:21:28.579Z,9.60
2023-03-06T08:23:55.933Z,9.60
2023-03-06T08:26:29.129Z,9.60
2023-03-06T08:28:57.627Z,9.60
2023-03-06T08:31:35.357Z,9.60
2023-03-06T08:34:07.776Z,9.60
2023-03-06T08:36:34.498Z,9.60
2023-03-06T08:39:01.680Z,9.60
2023-03-06T08:41:29.214Z,9.60
2023-03-06T08:43:56.243Z,9.60
2023-03-06T08:46:25.321Z,9.60
2023-03-06T08:48:53.198Z,9.60
2023-03-06T08:51:20.904Z,9.60
2023-03-06T08:53:48.097Z,9.60
2023-03-06T08:56:17.153Z,9.60
2023-03-06T08:58:44.152Z,9.60
2023-03-06T09:01:16.352Z,9.70
2023-03-06T09:03:43.841Z,9.70
2023-03-06T09:06:10.803Z,9.70
2023-03-06T09:08:43.036Z,9.80
2023-03-06T09:11:11.440Z,9.80
2023-03-06T09:13:38.231Z,9.80
2023-03-06T09:16:05.369Z,9.80
2023-03-06T09:18:32.074Z,9.80
2023-03-06T09:20:58.762Z,9.80
2023-03-06T09:23:25.429Z,9.80
2023-03-06T09:25:55.768Z,9.90
2023-03-06T09:28:22.963Z,10.00
2023-03-06T09:30:50.301Z,10.00
2023-03-06T09:33:17.482Z,10.10
2023-03-06T09:35:51.128Z,10.10
2023-03-06T09:38:19.088Z,10.10
2023-03-06T09:40:45.773Z,10.20
2023-03-06T09:43:20.474Z,10.20
2023-03-06T09:45:47.313Z,10.20
2023-03-06T09:48:15.826Z,10.20
2023-03-06T09:51:05.697Z,10.20
2023-03-06T09:53:55.348Z,10.20
2023-03-06T09:56:24.404Z,10.20
2023-03-06T09:58:55.750Z,10.20
2023-03-06T10:01:30.202Z,10.30
2023-03-06T10:04:06.115Z,10.30
2023-03-06T10:06:48.563Z,10.30
2023-03-06T10:09:41.505Z,10.30
2023-03-06T10:12:24.519Z,10.40
2023-03-06T10:15:05.262Z,10.40
2023-03-06T10:17:36.888Z,10.40
2023-03-06T10:20:29.907Z,10.50
2023-03-06T10:23:09.545Z,10.50
2023-03-06T10:25:50.724Z,10.50
2023-03-06T10:28:23.216Z,10.50
2023-03-06T10:31:01.736Z,10.50
2023-03-06T10:33:46.936Z,10.50
2023-03-06T10:36:19.191Z,10.60
2023-03-06T10:38:48.562Z,10.60
2023-03-06T10:41:32.318Z,10.60
2023-03-06T10:44:05.344Z,10.60
2023-03-06T10:46:42.394Z,10.70
2023-03-06T10:49:34.860Z,10.70
2023-03-06T10:52:20.862Z,10.70
2023-03-06T10:54:48.358Z,10.70
2023-03-06T10:57:31.957Z,10.70
2023-03-06T11:00:01.072Z,10.70
2023-03-06T11:02:29.429Z,10.80
2023-03-06T11:04:57.950Z,10.80
2023-03-06T11:07:27.363Z,10.80
2023-03-06T11:09:57.621Z,10.90
2023-03-06T11:12:44.576Z,10.90
2023-03-06T11:15:14.357Z,10.90
2023-03-06T11:17:54.799Z,11.00
2023-03-06T11:20:26.726Z,10.90
2023-03-06T11:23:07.532Z,11.00
2023-03-06T11:25:42.992Z,11.00
2023-03-06T11:28:32.831Z,11.10
2023-03-06T11:31:05.982Z,11.10
2023-03-06T11:33:42.555Z,11.10
2023-03-06T11:36:28.181Z,11.10
2023-03-06T11:38:55.639Z,11.20
2023-03-06T11:44:36.719Z,11.20
2023-03-06T11:47:18.236Z,11.20
2023-03-06T11:49:50.676Z,11.30
2023-03-06T11:52:29.480Z,11.30
2023-03-06T11:54:57.175Z,11.30
2023-03-06T11:57:54.342Z,11.30
2023-03-06T12:00:43.105Z,11.30
2023-03-06T12:03:33.016Z,11.30
2023-03-06T12:06:27.692Z,11.30
2023-03-06T12:09:14.439Z,11.30
2023-03-06T12:12:08.947Z,11.40
2023-03-06T12:14:41.718Z,11.40
2023-03-06T12:17:43.412Z,11.40
2023-03-06T12:20:23.629Z,11.40
2023-03-06T12:22:57.740Z,11.40
2023-03-06T12:25:45.034Z,11.40
2023-03-06T12:28:34.083Z,11.40
2023-03-06T12:31:45.491Z,11.40
2023-03-06T12:39:44.508Z,11.50
2023-03-06T12:42:29.752Z,11.70
2023-03-06T12:52:41.807Z,11.80
2023-03-06T12:55:14.763Z,12.00
2023-03-06T12:57:41.946Z,12.10
2023-03-06T13:00:31.778Z,12.10
2023-03-06T13:03:24.797Z,12.10
2023-03-06T13:19:00.518Z,12.10
2023-03-06T13:24:22.201Z,12.30
2023-03-06T13:26:53.502Z,12.40
2023-03-06T13:29:38.370Z,12.50
2023-03-06T13:32:16.260Z,12.50
2023-03-06T13:34:48.576Z,12.50
2023-03-06T13:37:23.229Z,12.50
2023-03-06T13:39:55.702Z,12.60
2023-03-06T13:42:42.605Z,12.60
2023-03-06T13:45:15.441Z,12.50
2023-03-06T13:48:33.672Z,12.50
2023-03-06T13:50:47.743Z,12.50
2023-03-06T13:53:40.758Z,12.50
2023-03-06T14:02:10.318Z,12.50
2023-03-06T14:04:37.358Z,12.40
2023-03-06T14:07:20.015Z,12.40
2023-03-06T14:09:56.214Z,12.30
2023-03-06T14:12:36.337Z,12.30
2023-03-06T14:15:20.113Z,12.20
2023-03-06T14:17:56.311Z,12.20
2023-03-06T14:20:32.009Z,12.30
2023-03-06T14:23:39.562Z,12.30
2023-03-06T14:26:23.387Z,12.30
2023-03-06T14:28:52.857Z,12.40
2023-03-06T14:31:22.643Z,12.40
2023-03-06T14:33:56.538Z,12.30
2023-03-06T14:36:45.041Z,12.30
2023-03-06T14:39:27.064Z,12.30
2023-03-06T14:42:17.299Z,12.20
2023-03-06T14:44:44.268Z,12.20
2023-03-06T14:47:26.545Z,12.20
2023-03-06T14:50:30.275Z,12.10
2023-03-06T14:52:59.285Z,12.00
2023-03-06T14:55:29.552Z,11.90
2023-03-06T14:58:11.371Z,11.80
2023-03-06T15:00:49.485Z,11.60
2023-03-06T15:03:34.131Z,11.50
2023-03-06T15:06:01.402Z,11.40
2023-03-06T15:08:31.169Z,11.50
2023-03-06T15:11:00.449Z,11.50
2023-03-06T15:13:29.912Z,11.60
2023-03-06T15:15:56.540Z,11.70
2023-03-06T15:18:33.702Z,11.70
2023-03-06T15:21:28.548Z,11.80
2023-03-06T15:23:57.340Z,11.70
2023-03-06T15:26:29.147Z,11.70
2023-03-06T15:29:07.039Z,11.70
2023-03-06T15:31:41.135Z,11.70
2023-03-06T15:34:09.097Z,11.70
2023-03-06T15:36:41.397Z,11.70
2023-03-06T15:39:27.953Z,11.80
2023-03-06T15:42:19.071Z,11.80
2023-03-06T15:44:54.016Z,11.70
2023-03-06T15:47:21.966Z,11.70
2023-03-06T15:49:52.053Z,11.70
2023-03-06T15:52:22.765Z,11.60
2023-03-06T15:54:49.476Z,11.50
2023-03-06T15:57:26.207Z,11.40
2023-03-06T15:59:53.555Z,11.40
2023-03-06T16:02:22.249Z,11.40
2023-03-06T16:07:16.883Z,11.40
2023-03-06T16:14:44.437Z,11.20
2023-03-06T16:17:12.356Z,10.80
2023-03-06T16:19:39.716Z,10.80
2023-03-06T16:22:06.412Z,10.80
2023-03-06T16:24:33.279Z,10.80
2023-03-06T16:27:01.543Z,10.80
2023-03-06T16:29:29.349Z,10.90
2023-03-06T16:31:57.582Z,11.00
2023-03-06T16:34:24.827Z,11.00
2023-03-06T16:36:52.046Z,11.00
2023-03-06T16:39:21.713Z,11.00
2023-03-06T16:41:52.278Z,11.00
2023-03-06T16:44:19.732Z,11.00
2023-03-06T16:46:49.977Z,11.00
2023-03-06T16:49:21.968Z,11.00
2023-03-06T16:51:49.289Z,11.10
2023-03-06T16:54:16.018Z,11.20
2023-03-06T16:56:43.033Z,11.20
2023-03-06T16:59:10.315Z,11.20
2023-03-06T17:01:37.688Z,11.20
2023-03-06T17:04:04.714Z,11.20
2023-03-06T17:06:31.450Z,11.20
2023-03-06T17:08:59.691Z,11.10
2023-03-06T17:11:27.272Z,11.00
2023-03-06T17:13:55.226Z,11.00
2023-03-06T17:16:22.383Z,11.00
2023-03-06T17:23:44.494Z,10.80
2023-03-06T17:26:18.878Z,10.40
2023-03-06T17:28:46.638Z,10.30
2023-03-06T17:31:15.779Z,10.40
2023-03-06T17:33:43.478Z,10.50
2023-03-06T17:36:11.008Z,10.50
2023-03-06T17:38:38.083Z,10.60
2023-03-06T17:41:07.343Z,10.70
2023-03-06T17:43:34.102Z,10.70
2023-03-06T17:46:05.888Z,10.70
2023-03-06T17:48:35.266Z,10.70
2023-03-06T17:51:02.277Z,10.80
2023-03-06T17:53:29.298Z,10.70
2023-03-06T17:56:02.861Z,10.60
2023-03-06T17:58:29.520Z,10.60
2023-03-06T18:00:59.264Z,10.60
2023-03-06T18:03:26.258Z,10.50
2023-03-06T18:06:00.833Z,10.40
2023-03-06T18:08:30.576Z,10.30
2023-03-06T18:11:03.466Z,10.20
2023-03-06T18:13:33.744Z,10.10
2023-03-06T18:16:01.047Z,10.10
2023-03-06T18:18:28.429Z,10.00
2023-03-06T18:20:55.364Z,9.90
2023-03-06T18:23:26.694Z,9.80
2023-03-06T18:25:53.383Z,9.80
2023-03-06T18:28:20.055Z,9.80
2023-03-06T18:30:46.753Z,9.90
2023-03-06T18:33:13.564Z,9.80
2023-03-06T18:35:43.936Z,9.80
2023-03-06T18:38:10.684Z,9.80
2023-03-06T18:40:37.512Z,9.80
2023-03-06T18:43:04.470Z,9.80
2023-03-06T18:45:31.365Z,9.80
2023-03-06T18:47:58.056Z,9.70
2023-03-06T18:50:24.866Z,9.70
2023-03-06T18:52:51.512Z,9.70
2023-03-06T18:55:18.151Z,9.70
2023-03-06T18:57:44.823Z,9.70
2023-03-06T19:00:12.279Z,9.70
2023-03-06T19:02:39.016Z,9.70
2023-03-06T19:05:06.104Z,9.70
2023-03-06T19:07:32.850Z,9.70
2023-03-06T19:09:59.565Z,9.70
2023-03-06T19:12:26.297Z,9.60
2023-03-06T19:14:53.020Z,9.70
2023-03-06T19:17:19.828Z,9.70
2023-03-06T19:19:49.609Z,9.70
2023-03-06T19:22:18.406Z,9.70
2023-03-06T19:24:46.843Z,9.80
2023-03-06T19:27:14.523Z,9.80
2023-03-06T19:29:46.760Z,9.80
2023-03-06T19:32:13.750Z,9.80
2023-03-06T19:34:40.544Z,9.80
2023-03-06T19:37:10.732Z,9.80
2023-03-06T19:39:37.449Z,9.90
2023-03-06T19:42:06.947Z,9.90
2023-03-06T19:44:36.688Z,9.90
2023-03-06T19:47:03.422Z,9.80
2023-03-06T19:49:30.110Z,9.80
2023-03-06T19:51:57.196Z,9.80
2023-03-06T19:54:28.036Z,9.90
2023-03-06T19:56:54.781Z,9.90
2023-03-06T19:59:21.451Z,9.90
2023-03-06T20:01:50.468Z,9.80
2023-03-06T20:04:22.481Z,9.80
2023-03-06T20:06:52.963Z,9.80
2023-03-06T20:09:19.859Z,9.80
2023-03-06T20:11:46.650Z,9.80
2023-03-06T20:14:18.253Z,9.80
2023-03-06T20:16:45.212Z,9.80
2023-03-06T20:19:12.067Z,9.80
2023-03-06T20:21:38.771Z,9.80
2023-03-06T20:24:07.695Z,9.80
2023-03-06T20:26:36.669Z,9.80
2023-03-06T20:29:03.718Z,9.80
2023-03-06T20:31:33.639Z,9.80
2023-03-06T20:34:04.225Z,9.80
2023-03-06T20:36:33.885Z,9.90
2023-03-06T20:39:04.319Z,9.80
2023-03-06T20:41:31.525Z,9.80
2023-03-06T20:44:00.014Z,9.80
2023-03-06T20:46:27.421Z,9.80
2023-03-06T20:48:54.849Z,9.80
2023-03-06T20:51:28.547Z,9.70
2023-03-06T20:53:56.122Z,9.70
2023-03-06T20:56:25.564Z,9.70
2023-03-06T20:58:52.674Z,9.70
2023-03-06T21:01:21.517Z,9.70
2023-03-06T21:03:48.444Z,9.80
2023-03-06T21:06:15.789Z,9.80
2023-03-06T21:08:42.721Z,9.80
2023-03-06T21:11:10.011Z,9.80
2023-03-06T21:13:36.705Z,9.80
2023-03-06T21:16:07.614Z,9.80
2023-03-06T21:18:34.295Z,9.80
2023-03-06T21:21:09.577Z,9.80
2023-03-06T21:23:36.962Z,9.80
2023-03-06T21:26:04.153Z,9.70
2023-03-06T21:28:31.052Z,9.70
2023-03-06T21:31:00.834Z,9.60
2023-03-06T21:33:27.596Z,9.60
2023-03-06T21:35:54.443Z,9.60
2023-03-06T21:38:21.231Z,9.60
2023-03-06T21:40:47.939Z,9.70
2023-03-06T21:43:17.391Z,9.70
2023-03-06T21:45:49.166Z,9.80
2023-03-06T21:48:17.857Z,9.80
2023-03-06T21:50:49.875Z,9.80
2023-03-06T21:53:20.441Z,9.80
2023-03-06T21:55:47.123Z,9.80
2023-03-06T21:58:13.850Z,9.90
2023-03-06T22:00:43.656Z,10.00
2023-03-06T22:03:10.890Z,10.00
2023-03-06T22:05:37.605Z,10.10
2023-03-06T22:08:04.325Z,10.10
2023-03-06T22:10:30.986Z,10.10
2023-03-06T22:12:57.652Z,10.20
2023-03-06T22:15:27.394Z,10.20
2023-03-06T22:17:54.196Z,10.30
2023-03-06T22:20:20.831Z,10.30
2023-03-06T22:22:47.521Z,10.40
2023-03-06T22:25:14.852Z,10.40
2023-03-06T22:27:41.520Z,10.50
2023-03-06T22:30:11.024Z,10.50
2023-03-06T22:32:37.769Z,10.60
2023-03-06T22:35:04.914Z,10.60
2023-03-06T22:37:31.877Z,10.60
2023-03-06T22:39:58.487Z,10.60
2023-03-06T22:42:25.254Z,10.60
2023-03-06T22:44:51.973Z,10.50
2023-03-06T22:47:18.718Z,10.50
2023-03-06T22:49:45.439Z,10.50
2023-03-06T22:52:15.118Z,10.60
2023-03-06T22:54:41.995Z,10.60
2023-03-06T22:57:08.643Z,10.60
2023-03-06T22:59:35.367Z,10.60
2023-03-06T23:02:03.971Z,10.60
2023-03-06T23:04:30.764Z,10.60
2023-03-06T23:06:57.465Z,10.60
2023-03-06T23:09:25.104Z,10.50
2023-03-06T23:11:52.202Z,10.50
2023-03-06T23:14:19.468Z,10.50
2023-03-06T23:16:46.413Z,10.40
2023-03-06T23:19:14.232Z,10.40
2023-03-06T23:21:41.871Z,10.40
2023-03-06T23:24:09.579Z,10.40
2023-03-06T23:26:36.335Z,10.40
2023-03-06T23:29:07.230Z,10.40
2023-03-06T23:31:33.872Z,10.40
2023-03-06T23:34:02.006Z,10.50
2023-03-06T23:36:29.865Z,10.50
2023-03-06T23:38:56.722Z,10.50
2023-03-06T23:41:23.828Z,10.50
2023-03-06T23:43:51.991Z,10.50
2023-03-06T23:46:23.372Z,10.50
2023-03-06T23:48:50.128Z,10.50
2023-03-06T23:51:22.161Z,10.50
2023-03-06T23:53:55.388Z,10.50
2023-03-06T23:56:22.941Z,10.50
2023-03-06T23:58:49.726Z,10.50
